createdAt,value
2023-03-21T00:00:40.242Z,8.93
2023-03-21T00:03:08.844Z,15.60
2023-03-21T00:05:41.717Z,12.27
2023-03-21T00:08:10.340Z,10.87
2023-03-21T00:10:43.243Z,12.90
2023-03-21T00:13:14.021Z,11.57
2023-03-21T00:16:04.445Z,14.97
2023-03-21T00:18:36.632Z,12.17
2023-03-21T00:21:37.553Z,12.47
2023-03-21T00:23:54.489Z,15.90
2023-03-21T00:26:23.392Z,9.83
2023-03-21T00:28:52.999Z,12.87
2023-03-21T00:31:21.195Z,9.63
2023-03-21T00:33:49.406Z,11.70
2023-03-21T00:36:17.598Z,13.40
2023-03-21T00:38:46.039Z,11.87
2023-03-21T00:41:26.149Z,14.73
2023-03-21T00:44:04.885Z,13.63
2023-03-21T00:46:43.917Z,10.43
2023-03-21T00:49:13.621Z,12.80
2023-03-21T00:51:43.539Z,14.37
2023-03-21T00:54:12.689Z,8.73
2023-03-21T00:56:40.886Z,12.63
2023-03-21T00:59:10.488Z,11.53
2023-03-21T01:01:38.729Z,10.43
2023-03-21T01:04:11.037Z,10.63
2023-03-21T01:06:39.998Z,9.33
2023-03-21T01:09:08.949Z,10.03
2023-03-21T01:11:37.146Z,10.23
2023-03-21T01:14:20.966Z,10.23
2023-03-21T01:16:51.829Z,13.30
2023-03-21T01:19:37.951Z,15.07
2023-03-21T01:22:08.879Z,10.97
2023-03-21T01:24:40.614Z,14.43
2023-03-21T01:27:14.902Z,12.07
2023-03-21T01:29:43.503Z,13.67
2023-03-21T01:32:13.030Z,11.00
2023-03-21T01:34:41.389Z,10.13
2023-03-21T01:37:09.586Z,11.20
2023-03-21T01:39:37.736Z,14.30
2023-03-21T01:42:06.047Z,9.23
2023-03-21T01:44:34.223Z,7.50
2023-03-21T01:47:11.846Z,10.37
2023-03-21T01:49:45.869Z,9.03
2023-03-21T01:52:26.399Z,13.43
2023-03-21T01:54:58.991Z,11.77
2023-03-21T01:57:41.010Z,10.57
2023-03-21T02:00:12.953Z,9.60
2023-03-21T02:02:52.163Z,11.17
2023-03-21T02:05:24.407Z,10.53
2023-03-21T02:07:53.651Z,10.07
2023-03-21T02:10:22.218Z,8.30
2023-03-21T02:12:50.997Z,12.70
2023-03-21T02:15:19.404Z,10.77
2023-03-21T02:17:50.130Z,10.40
2023-03-21T02:20:39.015Z,10.27
2023-03-21T02:23:20.991Z,10.20
2023-03-21T02:26:04.620Z,10.60
2023-03-21T02:28:34.744Z,9.37
2023-03-21T02:31:17.830Z,7.93
2023-03-21T02:34:01.204Z,14.10
2023-03-21T02:36:32.946Z,12.37
2023-03-21T02:39:07.956Z,11.73
2023-03-21T02:41:42.829Z,8.83
2023-03-21T02:44:16.874Z,9.40
2023-03-21T02:46:53.795Z,7.73
2023-03-21T02:49:30.167Z,13.17
2023-03-21T02:52:05.478Z,7.67
2023-03-21T02:54:48.415Z,8.00
2023-03-21T02:57:18.407Z,8.80
2023-03-21T02:59:53.778Z,10.10
2023-03-21T03:02:28.004Z,9.47
2023-03-21T03:04:56.733Z,10.30
2023-03-21T03:07:33.625Z,12.90
2023-03-21T03:10:10.678Z,9.90
2023-03-21T03:12:44.309Z,15.50
2023-03-21T03:15:17.710Z,10.60
2023-03-21T03:17:50.547Z,7.20
2023-03-21T03:20:29.605Z,9.40
2023-03-21T03:23:03.473Z,9.87
2023-03-21T03:25:42.492Z,9.60
2023-03-21T03:28:13.017Z,9.03
2023-03-21T03:30:46.745Z,5.50
2023-03-21T03:33:23.489Z,8.53
2023-03-21T03:36:04.433Z,13.80
2023-03-21T03:38:36.310Z,12.00
2023-03-21T03:41:08.920Z,10.07
2023-03-21T03:43:38.737Z,10.20
2023-03-21T03:46:12.267Z,9.60
2023-03-21T03:48:46.637Z,12.00
2023-03-21T03:51:17.297Z,14.70
2023-03-21T03:53:46.820Z,7.93
2023-03-21T03:56:16.465Z,11.83
2023-03-21T03:58:45.902Z,7.80
2023-03-21T04:01:14.397Z,13.97
2023-03-21T04:03:50.195Z,14.17
2023-03-21T04:06:22.133Z,10.20
2023-03-21T04:08:50.959Z,12.13
2023-03-21T04:11:20.460Z,13.63
2023-03-21T04:13:48.714Z,9.83
2023-03-21T04:16:17.152Z,14.60
2023-03-21T04:18:45.331Z,10.27
2023-03-21T04:21:14.038Z,10.23
2023-03-21T04:23:42.769Z,6.87
2023-03-21T04:26:11.243Z,13.67
2023-03-21T04:28:41.536Z,10.27
2023-03-21T04:31:24.593Z,13.43
2023-03-21T04:33:55.804Z,11.67
2023-03-21T04:36:27.464Z,13.47
2023-03-21T04:38:57.325Z,11.40
2023-03-21T04:41:25.573Z,13.43
2023-03-21T04:43:55.763Z,9.87
2023-03-21T04:46:24.022Z,10.40
2023-03-21T04:48:52.205Z,10.27
2023-03-21T04:51:20.383Z,14.27
2023-03-21T04:53:49.417Z,8.87
2023-03-21T04:56:17.798Z,11.27
2023-03-21T04:58:46.145Z,9.37
2023-03-21T05:01:20.047Z,11.17
2023-03-21T05:03:48.351Z,9.40
2023-03-21T05:06:16.627Z,12.60
2023-03-21T05:08:44.786Z,11.50
2023-03-21T05:11:12.967Z,16.53
2023-03-21T05:13:41.420Z,10.77
2023-03-21T05:16:10.185Z,11.13
2023-03-21T05:18:39.699Z,10.33
2023-03-21T05:21:10.585Z,12.17
2023-03-21T05:23:42.035Z,11.07
2023-03-21T05:26:10.901Z,9.60
2023-03-21T05:28:39.953Z,11.90
2023-03-21T05:31:08.782Z,11.70
2023-03-21T05:33:37.057Z,10.00
2023-03-21T05:36:07.078Z,11.87
2023-03-21T05:38:35.278Z,9.03
2023-03-21T05:41:03.637Z,10.20
2023-03-21T05:43:31.824Z,14.43
2023-03-21T05:46:00.040Z,10.73
2023-03-21T05:48:28.245Z,11.43
2023-03-21T05:50:56.493Z,9.83
2023-03-21T05:53:26.014Z,15.83
2023-03-21T05:55:54.199Z,10.53
2023-03-21T05:58:22.376Z,13.20
2023-03-21T06:00:50.680Z,15.30
2023-03-21T06:03:18.892Z,15.40
2023-03-21T06:05:47.125Z,12.83
2023-03-21T06:08:15.379Z,11.10
2023-03-21T06:10:44.931Z,13.70
2023-03-21T06:13:13.101Z,14.53
2023-03-21T06:15:41.379Z,12.07
2023-03-21T06:18:09.572Z,10.70
2023-03-21T06:20:37.729Z,7.07
2023-03-21T06:23:05.895Z,10.10
2023-03-21T06:25:34.060Z,11.77
2023-03-21T06:28:03.561Z,11.77
2023-03-21T06:30:31.735Z,7.33
2023-03-21T06:32:59.938Z,10.43
2023-03-21T06:35:28.273Z,7.87
2023-03-21T06:37:58.352Z,10.57
2023-03-21T06:40:26.505Z,9.00
2023-03-21T06:42:54.667Z,9.60
2023-03-21T06:45:25.463Z,8.77
2023-03-21T06:47:53.664Z,12.47
2023-03-21T06:50:22.041Z,7.87
2023-03-21T06:52:50.998Z,5.57
2023-03-21T06:55:26.002Z,8.63
2023-03-21T06:57:54.197Z,11.03
2023-03-21T07:00:24.674Z,7.17
2023-03-21T07:02:53.835Z,10.37
2023-03-21T07:05:22.100Z,7.77
2023-03-21T07:07:50.321Z,8.33
2023-03-21T07:10:18.643Z,7.63
2023-03-21T07:12:46.820Z,5.70
2023-03-21T07:15:15.064Z,7.60
2023-03-21T07:17:44.556Z,10.50
2023-03-21T07:20:14.114Z,8.60
2023-03-21T07:22:42.611Z,5.07
2023-03-21T07:25:11.484Z,3.90
2023-03-21T07:27:41.013Z,7.10
2023-03-21T07:30:10.653Z,4.87
2023-03-21T07:32:40.375Z,5.80
2023-03-21T07:35:12.443Z,6.13
2023-03-21T07:37:41.043Z,7.70
2023-03-21T07:40:10.594Z,5.60
2023-03-21T07:42:38.966Z,9.13
2023-03-21T07:45:07.796Z,5.20
2023-03-21T07:47:36.625Z,11.13
2023-03-21T07:50:05.407Z,4.37
2023-03-21T07:52:35.000Z,6.27
2023-03-21T07:55:03.155Z,10.10
2023-03-21T07:57:31.388Z,6.60
2023-03-21T08:00:00.208Z,6.63
2023-03-21T08:02:28.619Z,5.13
2023-03-21T08:04:57.256Z,5.10
2023-03-21T08:07:26.685Z,5.10
2023-03-21T08:09:56.177Z,7.73
2023-03-21T08:12:24.945Z,8.27
2023-03-21T08:14:53.175Z,5.60
2023-03-21T08:17:21.360Z,7.57
2023-03-21T08:19:49.531Z,5.77
2023-03-21T08:22:17.688Z,8.50
2023-03-21T08:24:45.977Z,8.80
2023-03-21T08:27:15.487Z,10.63
2023-03-21T08:29:43.668Z,7.90
2023-03-21T08:32:11.910Z,7.07
2023-03-21T08:34:40.111Z,5.27
2023-03-21T08:37:08.292Z,6.30
2023-03-21T08:39:36.472Z,8.10
2023-03-21T08:42:05.428Z,7.93
2023-03-21T08:44:35.112Z,5.07
2023-03-21T08:47:03.317Z,6.57
2023-03-21T08:49:31.629Z,8.87
2023-03-21T08:51:59.831Z,6.37
2023-03-21T08:54:28.031Z,9.00
2023-03-21T08:56:56.541Z,8.70
2023-03-21T08:59:24.723Z,7.47
2023-03-21T09:01:54.275Z,5.37
2023-03-21T09:04:25.793Z,4.53
2023-03-21T09:06:56.147Z,4.50
2023-03-21T09:09:24.359Z,4.73
2023-03-21T09:11:52.683Z,6.37
2023-03-21T09:14:23.840Z,7.40
2023-03-21T09:16:57.814Z,5.50
2023-03-21T09:19:26.226Z,7.07
2023-03-21T09:21:55.708Z,7.73
2023-03-21T09:24:24.174Z,10.33
2023-03-21T09:26:52.921Z,6.47
2023-03-21T09:29:21.387Z,6.10
2023-03-21T09:31:49.699Z,4.07
2023-03-21T09:34:19.206Z,3.77
2023-03-21T09:36:48.420Z,6.87
2023-03-21T09:39:17.316Z,6.53
2023-03-21T09:41:58.550Z,4.30
2023-03-21T09:44:32.256Z,4.33
2023-03-21T09:47:05.253Z,6.73
2023-03-21T09:49:36.996Z,5.57
2023-03-21T09:52:09.315Z,4.80
2023-03-21T09:54:39.380Z,4.43
2023-03-21T09:57:15.507Z,4.87
2023-03-21T09:59:44.611Z,3.13
2023-03-21T10:02:20.594Z,2.93
2023-03-21T10:04:50.256Z,7.20
2023-03-21T10:07:19.851Z,3.53
2023-03-21T10:09:48.356Z,9.60
2023-03-21T10:12:30.490Z,3.93
2023-03-21T10:15:00.634Z,6.03
2023-03-21T10:17:32.069Z,3.90
2023-03-21T10:20:12.134Z,4.40
2023-03-21T10:22:40.583Z,3.97
2023-03-21T10:25:09.413Z,5.40
2023-03-21T10:27:38.307Z,5.63
2023-03-21T10:30:10.936Z,6.87
2023-03-21T10:32:39.127Z,4.03
2023-03-21T10:35:10.218Z,5.77
2023-03-21T10:37:39.010Z,4.53
2023-03-21T10:40:08.573Z,4.37
2023-03-21T10:42:37.164Z,5.07
2023-03-21T10:45:15.698Z,3.47
2023-03-21T10:47:44.353Z,4.30
2023-03-21T10:50:16.053Z,6.33
2023-03-21T10:52:46.707Z,5.93
2023-03-21T10:55:19.957Z,3.83
2023-03-21T10:57:48.626Z,4.30
2023-03-21T11:00:21.783Z,6.40
2023-03-21T11:02:50.909Z,5.27
2023-03-21T11:05:22.501Z,7.03
2023-03-21T11:07:57.350Z,5.20
2023-03-21T11:10:29.480Z,8.17
2023-03-21T11:12:59.513Z,5.67
2023-03-21T11:15:30.195Z,6.07
2023-03-21T11:17:58.373Z,5.53
2023-03-21T11:20:28.595Z,3.47
2023-03-21T11:22:57.207Z,4.47
2023-03-21T11:25:29.217Z,7.10
2023-03-21T11:27:57.844Z,7.07
2023-03-21T11:30:27.493Z,4.77
2023-03-21T11:32:56.867Z,6.07
2023-03-21T11:35:26.497Z,10.37
2023-03-21T11:37:57.056Z,7.07
2023-03-21T11:40:26.306Z,5.07
2023-03-21T11:42:55.128Z,5.97
2023-03-21T11:45:24.557Z,8.83
2023-03-21T11:47:53.343Z,7.20
2023-03-21T11:50:25.799Z,5.87
2023-03-21T11:53:17.952Z,5.63
2023-03-21T11:55:52.652Z,5.00
2023-03-21T11:58:30.603Z,3.10
2023-03-21T12:01:02.915Z,8.30
2023-03-21T12:03:49.093Z,5.23
2023-03-21T12:06:23.285Z,3.80
2023-03-21T12:08:55.773Z,3.27
2023-03-21T12:11:31.199Z,3.83
2023-03-21T12:14:05.499Z,3.80
2023-03-21T12:16:41.295Z,6.10
2023-03-21T12:19:26.236Z,5.67
2023-03-21T12:21:59.323Z,4.23
2023-03-21T12:24:28.980Z,3.60
2023-03-21T12:27:04.566Z,4.23
2023-03-21T12:29:42.029Z,7.83
2023-03-21T12:32:16.921Z,5.37
2023-03-21T12:34:55.409Z,3.50
2023-03-21T12:37:27.026Z,5.40
2023-03-21T12:39:57.074Z,5.27
2023-03-21T12:42:42.135Z,5.07
2023-03-21T12:45:15.724Z,4.53
2023-03-21T12:47:48.636Z,6.20
2023-03-21T12:50:18.829Z,7.53
2023-03-21T12:52:50.067Z,5.00
2023-03-21T12:55:20.662Z,3.40
2023-03-21T12:57:57.416Z,5.07
2023-03-21T13:00:28.260Z,5.80
2023-03-21T13:02:58.889Z,2.60
2023-03-21T13:05:29.210Z,5.10
2023-03-21T13:08:00.813Z,4.73
2023-03-21T13:10:29.113Z,5.27
2023-03-21T13:13:03.290Z,4.93
2023-03-21T13:15:38.686Z,4.87
2023-03-21T13:18:14.018Z,3.57
2023-03-21T13:20:45.783Z,5.20
2023-03-21T13:23:14.499Z,3.97
2023-03-21T13:25:44.591Z,5.60
2023-03-21T13:28:19.599Z,3.77
2023-03-21T13:30:48.766Z,3.70
2023-03-21T13:33:18.615Z,5.77
2023-03-21T13:35:47.407Z,4.40
2023-03-21T13:38:16.618Z,2.27
2023-03-21T13:40:46.853Z,3.17
2023-03-21T13:43:32.793Z,3.87
2023-03-21T13:46:08.825Z,2.50
2023-03-21T13:48:57.825Z,5.27
2023-03-21T13:51:46.232Z,3.20
2023-03-21T13:54:25.388Z,6.03
2023-03-21T13:56:55.615Z,3.63
2023-03-21T13:59:38.369Z,3.53
2023-03-21T14:02:21.036Z,2.20
2023-03-21T14:05:03.996Z,5.97
2023-03-21T14:07:34.538Z,2.03
2023-03-21T14:10:05.025Z,4.83
2023-03-21T14:12:38.722Z,3.50
2023-03-21T14:15:16.380Z,2.00
2023-03-21T14:17:53.162Z,2.73
2023-03-21T14:20:22.953Z,2.77
2023-03-21T14:22:51.685Z,4.43
2023-03-21T14:25:21.035Z,2.03
2023-03-21T14:27:50.043Z,2.30
2023-03-21T14:30:22.870Z,2.70
2023-03-21T14:32:52.454Z,3.13
2023-03-21T14:35:22.639Z,3.13
2023-03-21T14:37:51.381Z,1.97
2023-03-21T14:40:21.784Z,3.47
2023-03-21T14:42:51.153Z,3.10
2023-03-21T14:45:21.107Z,6.93
2023-03-21T14:47:57.920Z,4.80
2023-03-21T14:50:27.732Z,2.80
2023-03-21T14:52:55.988Z,4.90
2023-03-21T14:55:24.177Z,3.03
2023-03-21T14:57:52.346Z,3.00
2023-03-21T15:00:23.898Z,2.50
2023-03-21T15:02:52.961Z,2.93
2023-03-21T15:05:25.074Z,3.73
2023-03-21T15:07:57.708Z,3.87
2023-03-21T15:10:26.520Z,3.70
2023-03-21T15:12:56.001Z,1.70
2023-03-21T15:15:27.321Z,1.97
2023-03-21T15:17:57.046Z,2.40
2023-03-21T15:20:28.129Z,2.70
2023-03-21T15:22:57.284Z,1.93
2023-03-21T15:25:28.023Z,5.27
2023-03-21T15:27:56.959Z,3.70
2023-03-21T15:30:26.312Z,13.13
2023-03-21T15:32:54.486Z,3.00
2023-03-21T15:35:24.004Z,3.73
2023-03-21T15:37:57.542Z,2.67
2023-03-21T15:40:27.078Z,5.47
2023-03-21T15:43:06.456Z,2.50
2023-03-21T15:45:34.729Z,2.73
2023-03-21T15:48:03.984Z,3.20
2023-03-21T15:50:35.985Z,2.93
2023-03-21T15:53:07.751Z,1.43
2023-03-21T15:55:40.058Z,1.50
2023-03-21T15:58:12.981Z,2.60
2023-03-21T16:00:42.055Z,1.70
2023-03-21T16:03:16.839Z,3.37
2023-03-21T16:05:45.262Z,3.70
2023-03-21T16:08:22.154Z,2.37
2023-03-21T16:10:50.484Z,2.97
2023-03-21T16:13:18.644Z,1.70
2023-03-21T16:15:46.914Z,2.03
2023-03-21T16:18:16.678Z,1.67
2023-03-21T16:20:46.109Z,3.27
2023-03-21T16:23:14.834Z,2.10
2023-03-21T16:25:45.725Z,2.00
2023-03-21T16:28:14.570Z,1.60
2023-03-21T16:30:42.760Z,2.80
2023-03-21T16:33:12.504Z,1.80
2023-03-21T16:35:40.804Z,2.20
2023-03-21T16:38:09.092Z,2.87
2023-03-21T16:40:39.357Z,2.87
2023-03-21T16:43:09.386Z,2.67
2023-03-21T16:45:38.088Z,3.53
2023-03-21T16:48:08.649Z,1.80
2023-03-21T16:50:38.228Z,1.50
2023-03-21T16:53:06.579Z,4.47
2023-03-21T16:55:34.874Z,2.47
2023-03-21T16:58:03.211Z,3.50
2023-03-21T17:00:33.199Z,3.87
2023-03-21T17:03:02.424Z,3.63
2023-03-21T17:05:31.526Z,2.87
2023-03-21T17:08:02.256Z,3.30
2023-03-21T17:10:31.325Z,2.43
2023-03-21T17:12:59.638Z,4.33
2023-03-21T17:15:27.878Z,2.63
2023-03-21T17:17:57.411Z,3.53
2023-03-21T17:20:26.935Z,7.03
2023-03-21T17:22:55.358Z,4.57
2023-03-21T17:25:23.871Z,2.83
2023-03-21T17:27:53.039Z,2.63
2023-03-21T17:30:22.751Z,2.57
2023-03-21T17:32:51.538Z,1.77
2023-03-21T17:35:21.473Z,3.13
2023-03-21T17:37:51.085Z,5.20
2023-03-21T17:40:21.192Z,4.60
2023-03-21T17:42:49.428Z,6.40
2023-03-21T17:45:17.634Z,5.90
2023-03-21T17:47:46.332Z,3.03
2023-03-21T17:50:19.269Z,4.73
2023-03-21T17:52:50.651Z,2.83
2023-03-21T17:55:21.204Z,4.47
2023-03-21T17:57:49.807Z,2.97
2023-03-21T18:00:19.721Z,5.97
2023-03-21T18:02:47.881Z,6.00
2023-03-21T18:05:16.307Z,3.60
2023-03-21T18:10:34.471Z,3.13
2023-03-21T18:13:02.645Z,5.70
2023-03-21T18:15:31.220Z,5.50
2023-03-21T18:17:59.619Z,4.70
2023-03-21T18:20:49.929Z,4.43
2023-03-21T18:23:18.567Z,5.53
2023-03-21T18:25:48.144Z,6.80
2023-03-21T18:28:20.441Z,3.80
2023-03-21T18:31:07.368Z,4.33
2023-03-21T18:33:37.457Z,4.93
2023-03-21T18:36:07.670Z,5.13
2023-03-21T18:38:36.496Z,7.43
2023-03-21T18:41:06.277Z,5.30
2023-03-21T18:44:02.802Z,5.47
2023-03-21T18:46:23.066Z,4.43
2023-03-21T18:48:51.783Z,5.63
2023-03-21T18:51:20.125Z,5.50
2023-03-21T18:53:48.295Z,5.33
2023-03-21T18:59:07.329Z,5.50
2023-03-21T19:01:35.881Z,5.40
2023-03-21T19:04:20.846Z,8.20
2023-03-21T19:06:50.161Z,3.97
2023-03-21T19:09:18.698Z,6.57
2023-03-21T19:11:48.505Z,4.60
2023-03-21T19:14:17.363Z,6.87
2023-03-21T19:17:25.281Z,4.87
2023-03-21T19:19:34.146Z,5.30
2023-03-21T19:22:02.341Z,4.97
2023-03-21T19:24:31.273Z,5.37
2023-03-21T19:27:00.921Z,6.63
2023-03-21T19:29:29.177Z,4.60
2023-03-21T19:31:57.413Z,5.80
2023-03-21T19:34:26.502Z,4.30
2023-03-21T19:36:54.956Z,6.50
2023-03-21T19:39:23.942Z,5.50
2023-03-21T19:41:55.487Z,5.40
2023-03-21T19:44:33.425Z,6.23
2023-03-21T19:47:01.585Z,6.43
2023-03-21T19:49:54.721Z,6.20
2023-03-21T19:52:20.398Z,6.33
2023-03-21T19:54:48.586Z,5.33
2023-03-21T19:57:17.219Z,7.17
2023-03-21T19:59:47.420Z,7.00
2023-03-21T20:02:34.416Z,6.07
2023-03-21T20:05:03.593Z,8.10
2023-03-21T20:07:32.756Z,3.90
2023-03-21T20:10:01.093Z,8.23
2023-03-21T20:12:29.297Z,7.40
2023-03-21T20:15:10.168Z,4.73
2023-03-21T20:17:44.094Z,4.30
2023-03-21T20:20:18.205Z,6.13
2023-03-21T20:23:07.336Z,5.60
2023-03-21T20:25:36.325Z,5.37
2023-03-21T20:28:26.039Z,7.57
2023-03-21T20:30:56.744Z,8.73
2023-03-21T20:33:25.311Z,6.03
2023-03-21T20:38:45.597Z,5.67
2023-03-21T20:41:13.829Z,5.13
2023-03-21T20:46:31.748Z,5.43
2023-03-21T20:48:59.994Z,7.10
2023-03-21T20:54:17.715Z,8.77
2023-03-21T20:56:45.938Z,4.40
2023-03-21T20:59:24.407Z,6.70
2023-03-21T21:01:56.158Z,6.70
2023-03-21T21:04:42.866Z,7.17
2023-03-21T21:07:16.046Z,10.20
2023-03-21T21:09:44.817Z,8.10
2023-03-21T21:12:14.081Z,6.90
2023-03-21T21:14:43.549Z,6.67
2023-03-21T21:20:02.206Z,9.70
2023-03-21T21:22:31.575Z,6.63
2023-03-21T21:24:59.810Z,9.27
2023-03-21T21:27:28.470Z,8.47
2023-03-21T21:29:57.428Z,8.10
2023-03-21T21:32:26.974Z,8.33
2023-03-21T21:34:56.143Z,5.80
2023-03-21T21:37:24.934Z,6.57
2023-03-21T21:39:53.978Z,7.73
2023-03-21T21:42:22.347Z,7.37
2023-03-21T21:44:50.627Z,8.13
2023-03-21T21:47:18.800Z,8.57
2023-03-21T21:49:48.413Z,8.40
2023-03-21T21:52:21.917Z,9.37
2023-03-21T21:54:50.484Z,7.57
2023-03-21T21:57:19.854Z,7.60
2023-03-21T21:59:48.073Z,8.40
2023-03-21T22:02:16.640Z,9.03
2023-03-21T22:04:44.852Z,9.37
2023-03-21T22:07:15.061Z,8.00
2023-03-21T22:09:44.382Z,5.90
2023-03-21T22:12:12.560Z,7.43
2023-03-21T22:14:40.859Z,7.47
2023-03-21T22:17:09.077Z,8.43
2023-03-21T22:19:40.040Z,7.83
2023-03-21T22:22:08.506Z,9.77
2023-03-21T22:24:38.152Z,9.97
2023-03-21T22:27:06.379Z,9.07
2023-03-21T22:29:34.558Z,6.87
2023-03-21T22:32:02.759Z,7.47
2023-03-21T22:34:31.092Z,7.97
2023-03-21T22:36:59.683Z,9.93
2023-03-21T22:39:28.654Z,8.50
2023-03-21T22:42:00.820Z,8.37
2023-03-21T22:44:34.291Z,11.10
2023-03-21T22:47:02.504Z,7.97
2023-03-21T22:49:31.783Z,7.80
2023-03-21T22:51:59.973Z,7.73
2023-03-21T22:54:28.232Z,10.97
2023-03-21T22:56:58.070Z,7.67
2023-03-21T22:59:26.431Z,11.20
2023-03-21T23:01:54.980Z,10.80
2023-03-21T23:04:23.192Z,10.97
2023-03-21T23:06:51.488Z,9.93
2023-03-21T23:09:19.921Z,8.77
2023-03-21T23:11:49.535Z,8.17
2023-03-21T23:14:20.049Z,9.30
2023-03-21T23:16:48.272Z,8.13
2023-03-21T23:19:16.442Z,7.93
2023-03-21T23:21:45.058Z,7.73
2023-03-21T23:24:13.237Z,9.47
2023-03-21T23:26:41.484Z,9.83
2023-03-21T23:29:09.722Z,8.93
2023-03-21T23:31:39.275Z,10.97
2023-03-21T23:34:07.811Z,7.53
2023-03-21T23:36:36.596Z,8.07
2023-03-21T23:39:04.896Z,7.53
2023-03-21T23:41:33.033Z,7.13
2023-03-21T23:44:01.242Z,7.00
2023-03-21T23:46:29.496Z,8.80
2023-03-21T23:48:59.038Z,8.03
2023-03-21T23:51:27.227Z,10.27
2023-03-21T23:53:57.079Z,7.93
2023-03-21T23:56:26.577Z,8.07
2023-03-21T23:58:54.757Z,7.90
